createdAt,value
2019-02-20T00:00:04.661Z,981.15
2019-02-20T00:01:04.935Z,981.29
2019-02-20T00:02:04.949Z,981.15
2019-02-20T00:03:05.162Z,981.15
2019-02-20T00:04:05.230Z,981.10
2019-02-20T00:05:04.667Z,981.07
2019-02-20T00:06:04.898Z,981.26
2019-02-20T00:07:04.653Z,981.04
2019-02-20T00:08:05.180Z,981.18
2019-02-20T00:09:04.791Z,981.18
2019-02-20T00:10:05.218Z,981.21
2019-02-20T00:11:05.185Z,981.16
2019-02-20T00:12:05.448Z,981.30
2019-02-20T00:13:04.906Z,981.16
2019-02-20T00:14:05.010Z,981.05
2019-02-20T00:15:05.124Z,981.16
2019-02-20T00:16:05.481Z,981.05
2019-02-20T00:17:05.097Z,981.21
2019-02-20T00:18:04.768Z,981.21
2019-02-20T00:19:04.890Z,981.24
2019-02-20T00:20:05.151Z,981.33
2019-02-20T00:21:04.632Z,981.30
2019-02-20T00:22:04.752Z,981.24
2019-02-20T00:23:04.933Z,981.30
2019-02-20T00:24:05.077Z,981.25
2019-02-20T00:25:05.076Z,981.16
2019-02-20T00:26:05.484Z,981.25
2019-02-20T00:27:04.576Z,981.08
2019-02-20T00:28:04.647Z,981.22
2019-02-20T00:29:09.778Z,981.28
2019-02-20T00:30:05.114Z,981.19
2019-02-20T00:31:04.661Z,981.39
2019-02-20T00:32:04.812Z,981.39
2019-02-20T00:33:05.463Z,981.22
2019-02-20T00:34:04.563Z,981.33
2019-02-20T00:35:05.231Z,981.28
2019-02-20T00:36:05.482Z,981.28
2019-02-20T00:37:05.457Z,981.25
2019-02-20T00:38:04.614Z,981.22
2019-02-20T00:39:05.303Z,981.45
2019-02-20T00:40:05.559Z,981.11
2019-02-20T00:41:04.572Z,981.28
2019-02-20T00:42:04.886Z,981.42
2019-02-20T00:43:04.983Z,981.25
2019-02-20T00:44:05.354Z,981.23
2019-02-20T00:45:04.591Z,981.34
2019-02-20T00:46:04.779Z,981.09
2019-02-20T00:47:05.205Z,981.26
2019-02-20T00:48:04.931Z,981.17
2019-02-20T00:49:10.179Z,981.34
2019-02-20T00:50:04.624Z,981.31
2019-02-20T00:51:04.811Z,981.26
2019-02-20T00:52:04.825Z,981.26
2019-02-20T00:53:05.055Z,981.29
2019-02-20T00:54:05.395Z,981.32
2019-02-20T00:55:04.519Z,981.23
2019-02-20T00:56:05.307Z,981.34
2019-02-20T00:57:05.288Z,981.37
2019-02-20T00:58:05.382Z,981.26
2019-02-20T00:59:05.042Z,981.26
2019-02-20T01:00:05.185Z,981.32
2019-02-20T01:01:05.264Z,981.46
2019-02-20T01:02:05.370Z,981.32
2019-02-20T01:03:04.536Z,981.43
2019-02-20T01:04:04.636Z,981.38
2019-02-20T01:05:04.972Z,981.32
2019-02-20T01:06:05.541Z,981.43
2019-02-20T01:07:05.311Z,981.49
2019-02-20T01:08:04.770Z,981.46
2019-02-20T01:09:05.369Z,981.52
2019-02-20T01:10:04.649Z,981.49
2019-02-20T01:11:04.812Z,981.41
2019-02-20T01:12:05.006Z,981.46
2019-02-20T01:13:04.961Z,981.65
2019-02-20T01:14:05.357Z,981.49
2019-02-20T01:15:05.421Z,981.44
2019-02-20T01:16:05.426Z,981.38
2019-02-20T01:17:04.617Z,981.55
2019-02-20T01:18:04.911Z,981.30
2019-02-20T01:19:05.207Z,981.30
2019-02-20T01:20:05.333Z,981.35
2019-02-20T01:21:04.895Z,981.38
2019-02-20T01:22:04.457Z,981.38
2019-02-20T01:23:04.879Z,981.33
2019-02-20T01:24:05.209Z,981.33
2019-02-20T01:25:05.341Z,981.41
2019-02-20T01:26:04.741Z,981.38
2019-02-20T01:27:04.942Z,981.30
2019-02-20T01:28:05.271Z,981.30
2019-02-20T01:29:09.812Z,981.30
2019-02-20T01:30:05.327Z,981.27
2019-02-20T01:31:05.266Z,981.44
2019-02-20T01:32:05.471Z,981.16
2019-02-20T01:33:04.602Z,981.19
2019-02-20T01:34:04.611Z,981.35
2019-02-20T01:35:05.250Z,981.24
2019-02-20T01:36:05.222Z,981.24
2019-02-20T01:37:05.124Z,981.19
2019-02-20T01:38:05.162Z,981.19
2019-02-20T01:39:05.287Z,981.24
2019-02-20T01:40:04.806Z,981.22
2019-02-20T01:41:05.376Z,981.24
2019-02-20T01:42:04.917Z,981.19
2019-02-20T01:43:05.366Z,981.27
2019-02-20T01:44:04.639Z,981.19
2019-02-20T01:45:05.158Z,981.05
2019-02-20T01:46:05.217Z,981.19
2019-02-20T01:47:04.694Z,981.21
2019-02-20T01:48:04.744Z,981.24
2019-02-20T01:49:10.327Z,981.02
2019-02-20T01:50:04.788Z,981.21
2019-02-20T01:51:05.307Z,981.13
2019-02-20T01:52:04.850Z,981.30
2019-02-20T01:53:10.979Z,981.13
2019-02-20T01:54:04.581Z,981.05
2019-02-20T01:55:04.556Z,981.33
2019-02-20T01:56:04.764Z,981.30
2019-02-20T01:57:04.618Z,981.02
2019-02-20T01:58:05.019Z,981.21
2019-02-20T01:59:05.154Z,981.19
2019-02-20T02:00:05.375Z,980.94
2019-02-20T02:01:04.824Z,981.27
2019-02-20T02:02:04.923Z,981.24
2019-02-20T02:03:04.959Z,981.21
2019-02-20T02:04:05.089Z,981.19
2019-02-20T02:05:05.177Z,981.13
2019-02-20T02:06:04.587Z,981.13
2019-02-20T02:07:04.967Z,981.10
2019-02-20T02:08:04.485Z,981.21
2019-02-20T02:09:04.711Z,981.19
2019-02-20T02:10:04.872Z,981.10
2019-02-20T02:11:04.546Z,981.13
2019-02-20T02:12:04.783Z,981.08
2019-02-20T02:13:05.436Z,981.16
2019-02-20T02:14:04.849Z,981.22
2019-02-20T02:15:05.374Z,981.13
2019-02-20T02:16:04.477Z,981.22
2019-02-20T02:17:04.634Z,981.13
2019-02-20T02:18:04.931Z,981.22
2019-02-20T02:19:04.954Z,981.22
2019-02-20T02:20:05.239Z,981.30
2019-02-20T02:21:04.946Z,981.22
2019-02-20T02:22:04.627Z,981.25
2019-02-20T02:23:04.887Z,981.22
2019-02-20T02:24:05.148Z,981.25
2019-02-20T02:25:04.839Z,981.17
2019-02-20T02:26:11.270Z,981.19
2019-02-20T02:27:04.975Z,981.19
2019-02-20T02:28:05.366Z,981.20
2019-02-20T02:29:10.411Z,981.36
2019-02-20T02:30:04.807Z,981.17
2019-02-20T02:31:04.778Z,981.17
2019-02-20T02:32:05.100Z,981.25
2019-02-20T02:33:05.243Z,981.20
2019-02-20T02:34:04.545Z,981.03
2019-02-20T02:35:05.107Z,981.17
2019-02-20T02:36:05.436Z,981.14
2019-02-20T02:37:04.537Z,981.17
2019-02-20T02:38:04.749Z,981.06
2019-02-20T02:39:04.887Z,981.20
2019-02-20T02:40:05.497Z,981.20
2019-02-20T02:41:04.998Z,981.20
2019-02-20T02:42:05.013Z,981.06
2019-02-20T02:43:05.286Z,981.09
2019-02-20T02:44:04.605Z,980.95
2019-02-20T02:45:04.876Z,981.12
2019-02-20T02:46:05.029Z,981.00
2019-02-20T02:47:05.162Z,981.06
2019-02-20T02:48:05.336Z,981.09
2019-02-20T02:49:10.628Z,981.17
2019-02-20T02:50:05.064Z,981.11
2019-02-20T02:51:05.249Z,981.11
2019-02-20T02:52:04.570Z,981.25
2019-02-20T02:53:04.589Z,981.20
2019-02-20T02:54:04.702Z,981.31
2019-02-20T02:55:04.914Z,981.39
2019-02-20T02:56:04.776Z,981.28
2019-02-20T02:57:05.372Z,981.20
2019-02-20T02:58:05.391Z,981.36
2019-02-20T02:59:04.688Z,981.31
2019-02-20T03:00:04.670Z,981.34
2019-02-20T03:01:05.357Z,981.28
2019-02-20T03:02:05.345Z,981.34
2019-02-20T03:03:04.611Z,981.37
2019-02-20T03:04:04.608Z,981.31
2019-02-20T03:05:05.011Z,981.39
2019-02-20T03:06:05.218Z,981.31
2019-02-20T03:07:05.355Z,981.34
2019-02-20T03:08:05.107Z,981.23
2019-02-20T03:09:05.507Z,981.34
2019-02-20T03:10:05.359Z,981.23
2019-02-20T03:11:05.026Z,981.26
2019-02-20T03:12:05.251Z,981.42
2019-02-20T03:13:04.515Z,981.26
2019-02-20T03:14:05.170Z,981.26
2019-02-20T03:15:04.774Z,981.20
2019-02-20T03:16:05.348Z,981.42
2019-02-20T03:17:05.529Z,981.28
2019-02-20T03:18:04.492Z,981.37
2019-02-20T03:19:04.607Z,981.20
2019-02-20T03:20:04.928Z,981.34
2019-02-20T03:21:04.658Z,981.31
2019-02-20T03:22:04.795Z,981.48
2019-02-20T03:23:05.112Z,981.20
2019-02-20T03:24:05.247Z,981.37
2019-02-20T03:25:05.463Z,981.11
2019-02-20T03:26:04.840Z,981.11
2019-02-20T03:27:04.921Z,981.20
2019-02-20T03:28:04.503Z,981.34
2019-02-20T03:29:09.638Z,981.34
2019-02-20T03:30:05.018Z,981.31
2019-02-20T03:31:04.481Z,981.31
2019-02-20T03:32:05.034Z,981.25
2019-02-20T03:33:05.185Z,981.20
2019-02-20T03:34:09.156Z,981.17
2019-02-20T03:35:04.918Z,981.06
2019-02-20T03:36:05.078Z,981.25
2019-02-20T03:37:04.603Z,981.33
2019-02-20T03:38:04.812Z,981.30
2019-02-20T03:39:04.847Z,981.30
2019-02-20T03:40:05.305Z,981.30
2019-02-20T03:41:04.891Z,981.39
2019-02-20T03:42:05.254Z,981.25
2019-02-20T03:43:05.333Z,981.25
2019-02-20T03:44:05.374Z,981.25
2019-02-20T03:45:04.625Z,981.39
2019-02-20T03:46:04.990Z,981.36
2019-02-20T03:47:05.389Z,981.30
2019-02-20T03:48:04.800Z,981.39
2019-02-20T03:49:05.132Z,981.44
2019-02-20T03:50:05.266Z,981.39
2019-02-20T03:51:05.482Z,981.47
2019-02-20T03:52:04.651Z,981.47
2019-02-20T03:53:05.083Z,981.52
2019-02-20T03:54:05.221Z,981.47
2019-02-20T03:55:04.615Z,981.41
2019-02-20T03:56:04.725Z,981.52
2019-02-20T03:57:04.953Z,981.55
2019-02-20T03:58:05.305Z,981.44
2019-02-20T03:59:05.352Z,981.60
2019-02-20T04:00:04.483Z,981.47
2019-02-20T04:01:04.582Z,981.50
2019-02-20T04:02:04.842Z,981.55
2019-02-20T04:03:10.104Z,981.55
2019-02-20T04:04:04.440Z,981.50
2019-02-20T04:05:04.747Z,981.50
2019-02-20T04:06:04.871Z,981.33
2019-02-20T04:07:04.898Z,981.47
2019-02-20T04:08:05.231Z,981.55
2019-02-20T04:09:05.415Z,981.44
2019-02-20T04:10:05.046Z,981.63
2019-02-20T04:11:05.174Z,981.71
2019-02-20T04:12:05.524Z,981.66
2019-02-20T04:13:04.695Z,981.53
2019-02-20T04:14:04.700Z,981.53
2019-02-20T04:15:04.620Z,981.56
2019-02-20T04:16:04.705Z,981.57
2019-02-20T04:17:05.153Z,981.42
2019-02-20T04:18:04.621Z,981.63
2019-02-20T04:19:04.616Z,981.60
2019-02-20T04:20:05.034Z,981.56
2019-02-20T04:21:05.474Z,981.56
2019-02-20T04:22:04.731Z,981.56
2019-02-20T04:23:04.712Z,981.56
2019-02-20T04:24:04.765Z,981.63
2019-02-20T04:25:05.347Z,981.53
2019-02-20T04:26:05.391Z,981.56
2019-02-20T04:27:05.505Z,981.45
2019-02-20T04:28:04.981Z,981.50
2019-02-20T04:29:05.155Z,981.53
2019-02-20T04:30:05.352Z,981.63
2019-02-20T04:31:05.568Z,981.56
2019-02-20T04:32:05.026Z,981.53
2019-02-20T04:33:05.230Z,981.45
2019-02-20T04:34:04.732Z,981.63
2019-02-20T04:35:05.127Z,981.47
2019-02-20T04:36:05.112Z,981.57
2019-02-20T04:37:09.855Z,981.53
2019-02-20T04:38:05.341Z,981.57
2019-02-20T04:39:05.309Z,981.47
2019-02-20T04:40:04.606Z,981.42
2019-02-20T04:41:04.713Z,981.47
2019-02-20T04:42:04.966Z,981.53
2019-02-20T04:43:05.355Z,981.36
2019-02-20T04:44:04.621Z,981.36
2019-02-20T04:45:04.754Z,981.47
2019-02-20T04:46:04.532Z,981.47
2019-02-20T04:47:04.758Z,981.50
2019-02-20T04:48:05.185Z,981.28
2019-02-20T04:49:05.329Z,981.44
2019-02-20T04:50:04.559Z,981.41
2019-02-20T04:51:04.881Z,981.53
2019-02-20T04:52:04.995Z,981.44
2019-02-20T04:53:05.279Z,981.53
2019-02-20T04:54:13.960Z,981.50
2019-02-20T04:55:04.705Z,981.39
2019-02-20T04:56:05.308Z,981.44
2019-02-20T04:57:04.875Z,981.53
2019-02-20T04:58:04.662Z,981.55
2019-02-20T04:59:04.973Z,981.50
2019-02-20T05:00:05.449Z,981.41
2019-02-20T05:01:05.177Z,981.52
2019-02-20T05:02:05.310Z,981.44
2019-02-20T05:03:04.643Z,981.52
2019-02-20T05:04:04.744Z,981.41
2019-02-20T05:05:04.846Z,981.44
2019-02-20T05:06:04.993Z,981.44
2019-02-20T05:07:05.013Z,981.44
2019-02-20T05:08:05.469Z,981.50
2019-02-20T05:09:04.879Z,981.50
2019-02-20T05:10:05.127Z,981.53
2019-02-20T05:11:05.424Z,981.53
2019-02-20T05:12:04.608Z,981.66
2019-02-20T05:13:05.257Z,981.57
2019-02-20T05:14:04.763Z,981.63
2019-02-20T05:15:05.352Z,981.45
2019-02-20T05:16:05.595Z,981.45
2019-02-20T05:17:04.711Z,981.58
2019-02-20T05:18:05.147Z,981.53
2019-02-20T05:19:05.300Z,981.66
2019-02-20T05:20:05.396Z,981.56
2019-02-20T05:21:05.028Z,981.58
2019-02-20T05:22:04.687Z,981.58
2019-02-20T05:23:04.934Z,981.45
2019-02-20T05:24:05.073Z,981.53
2019-02-20T05:25:05.921Z,981.39
2019-02-20T05:26:04.526Z,981.50
2019-02-20T05:27:04.770Z,981.48
2019-02-20T05:28:04.713Z,981.39
2019-02-20T05:29:10.027Z,981.53
2019-02-20T05:30:05.576Z,981.53
2019-02-20T05:31:04.540Z,981.69
2019-02-20T05:32:04.706Z,981.61
2019-02-20T05:33:04.869Z,981.61
2019-02-20T05:34:04.916Z,981.48
2019-02-20T05:35:05.090Z,981.66
2019-02-20T05:36:05.174Z,981.63
2019-02-20T05:37:04.760Z,981.56
2019-02-20T05:38:05.027Z,981.53
2019-02-20T05:39:05.104Z,981.58
2019-02-20T05:40:04.712Z,981.64
2019-02-20T05:41:05.159Z,981.61
2019-02-20T05:42:05.609Z,981.58
2019-02-20T05:43:04.581Z,981.58
2019-02-20T05:44:04.840Z,981.69
2019-02-20T05:45:05.049Z,981.56
2019-02-20T05:46:05.328Z,981.69
2019-02-20T05:47:05.337Z,981.64
2019-02-20T05:48:05.486Z,981.69
2019-02-20T05:49:10.479Z,981.64
2019-02-20T05:50:04.851Z,981.69
2019-02-20T05:51:05.001Z,981.61
2019-02-20T05:52:05.225Z,981.67
2019-02-20T05:53:05.279Z,981.58
2019-02-20T05:54:05.376Z,981.58
2019-02-20T05:55:05.450Z,981.69
2019-02-20T05:56:04.514Z,981.67
2019-02-20T05:57:04.723Z,981.58
2019-02-20T05:58:04.812Z,981.78
2019-02-20T05:59:04.624Z,981.72
2019-02-20T06:00:04.841Z,981.72
2019-02-20T06:01:05.290Z,981.72
2019-02-20T06:02:05.285Z,981.64
2019-02-20T06:03:05.515Z,981.81
2019-02-20T06:04:05.176Z,981.67
2019-02-20T06:05:04.736Z,981.75
2019-02-20T06:06:05.257Z,981.86
2019-02-20T06:07:04.586Z,981.84
2019-02-20T06:08:04.797Z,981.89
2019-02-20T06:09:04.477Z,982.00
2019-02-20T06:10:04.777Z,981.78
2019-02-20T06:11:15.683Z,981.89
2019-02-20T06:12:05.368Z,981.95
2019-02-20T06:13:04.556Z,981.97
2019-02-20T06:14:04.657Z,982.00
2019-02-20T06:15:05.561Z,981.83
2019-02-20T06:16:04.485Z,982.00
2019-02-20T06:17:04.677Z,982.03
2019-02-20T06:18:04.825Z,982.14
2019-02-20T06:19:05.097Z,981.89
2019-02-20T06:20:05.208Z,982.11
2019-02-20T06:21:04.827Z,982.03
2019-02-20T06:22:05.072Z,981.89
2019-02-20T06:23:05.579Z,982.06
2019-02-20T06:24:05.016Z,982.14
2019-02-20T06:25:05.202Z,982.03
2019-02-20T06:26:05.261Z,982.06
2019-02-20T06:27:07.770Z,982.25
2019-02-20T06:28:05.122Z,982.06
2019-02-20T06:29:09.890Z,982.08
2019-02-20T06:30:05.368Z,982.14
2019-02-20T06:31:04.473Z,982.06
2019-02-20T06:32:05.192Z,982.08
2019-02-20T06:33:05.370Z,982.20
2019-02-20T06:34:04.815Z,982.22
2019-02-20T06:35:05.160Z,982.17
2019-02-20T06:36:05.270Z,982.11
2019-02-20T06:37:04.568Z,982.31
2019-02-20T06:38:04.803Z,982.25
2019-02-20T06:39:05.041Z,982.06
2019-02-20T06:40:04.517Z,982.11
2019-02-20T06:41:04.862Z,982.17
2019-02-20T06:42:05.148Z,982.00
2019-02-20T06:43:05.270Z,982.17
2019-02-20T06:44:04.561Z,982.14
2019-02-20T06:45:04.718Z,982.16
2019-02-20T06:46:04.911Z,982.25
2019-02-20T06:47:05.084Z,982.14
2019-02-20T06:48:05.137Z,982.22
2019-02-20T06:49:04.921Z,982.36
2019-02-20T06:50:05.282Z,982.39
2019-02-20T06:51:05.342Z,982.33
2019-02-20T06:52:05.578Z,982.16
2019-02-20T06:53:04.967Z,982.36
2019-02-20T06:54:05.259Z,982.41
2019-02-20T06:55:04.762Z,982.33
2019-02-20T06:56:04.957Z,982.27
2019-02-20T06:57:05.167Z,982.33
2019-02-20T06:58:04.645Z,982.30
2019-02-20T06:59:04.917Z,982.30
2019-02-20T07:00:05.022Z,982.38
2019-02-20T07:01:04.648Z,982.35
2019-02-20T07:02:04.916Z,982.32
2019-02-20T07:03:04.991Z,982.38
2019-02-20T07:04:04.675Z,982.46
2019-02-20T07:05:04.605Z,982.32
2019-02-20T07:06:04.887Z,982.32
2019-02-20T07:07:05.209Z,982.38
2019-02-20T07:08:05.698Z,982.32
2019-02-20T07:09:04.751Z,982.46
2019-02-20T07:10:04.758Z,982.63
2019-02-20T07:11:04.874Z,982.35
2019-02-20T07:12:05.127Z,982.54
2019-02-20T07:13:05.312Z,982.34
2019-02-20T07:14:04.784Z,982.43
2019-02-20T07:15:04.889Z,982.59
2019-02-20T07:16:05.145Z,982.59
2019-02-20T07:17:05.446Z,982.42
2019-02-20T07:18:04.487Z,982.54
2019-02-20T07:19:04.753Z,982.62
2019-02-20T07:20:04.759Z,982.64
2019-02-20T07:21:05.515Z,982.56
2019-02-20T07:22:04.650Z,982.58
2019-02-20T07:23:05.557Z,982.61
2019-02-20T07:24:04.582Z,982.52
2019-02-20T07:25:04.951Z,982.58
2019-02-20T07:26:04.686Z,982.49
2019-02-20T07:27:04.699Z,982.69
2019-02-20T07:28:05.306Z,982.63
2019-02-20T07:29:10.479Z,982.66
2019-02-20T07:30:04.916Z,982.74
2019-02-20T07:31:04.566Z,982.78
2019-02-20T07:32:05.008Z,982.57
2019-02-20T07:33:05.434Z,982.74
2019-02-20T07:34:05.899Z,982.78
2019-02-20T07:35:05.618Z,982.62
2019-02-20T07:36:04.991Z,982.67
2019-02-20T07:37:04.740Z,982.83
2019-02-20T07:38:04.869Z,982.67
2019-02-20T07:39:05.242Z,982.75
2019-02-20T07:40:05.601Z,982.88
2019-02-20T07:41:05.017Z,982.80
2019-02-20T07:42:05.211Z,982.75
2019-02-20T07:43:05.277Z,982.85
2019-02-20T07:44:05.108Z,982.93
2019-02-20T07:45:05.248Z,982.87
2019-02-20T07:46:04.766Z,982.84
2019-02-20T07:47:04.952Z,982.92
2019-02-20T07:48:05.252Z,982.81
2019-02-20T07:49:09.779Z,982.95
2019-02-20T07:50:05.314Z,982.92
2019-02-20T07:51:04.758Z,982.89
2019-02-20T07:52:05.342Z,983.08
2019-02-20T07:53:05.569Z,983.00
2019-02-20T07:54:04.679Z,982.91
2019-02-20T07:55:13.873Z,983.05
2019-02-20T07:56:04.525Z,982.97
2019-02-20T07:57:04.620Z,982.97
2019-02-20T07:58:05.219Z,982.96
2019-02-20T07:59:04.755Z,983.10
2019-02-20T08:00:05.274Z,982.96
2019-02-20T08:01:04.631Z,982.93
2019-02-20T08:02:04.771Z,983.13
2019-02-20T08:03:05.380Z,983.05
2019-02-20T08:04:05.429Z,982.93
2019-02-20T08:05:05.126Z,983.10
2019-02-20T08:06:05.478Z,983.05
2019-02-20T08:07:05.023Z,983.04
2019-02-20T08:08:05.379Z,983.18
2019-02-20T08:09:04.681Z,983.07
2019-02-20T08:10:04.952Z,983.18
2019-02-20T08:11:05.216Z,983.21
2019-02-20T08:12:04.636Z,983.35
2019-02-20T08:13:04.734Z,983.32
2019-02-20T08:14:04.735Z,983.29
2019-02-20T08:15:04.638Z,983.26
2019-02-20T08:16:04.861Z,983.15
2019-02-20T08:17:05.073Z,983.23
2019-02-20T08:18:05.239Z,983.20
2019-02-20T08:19:04.956Z,983.20
2019-02-20T08:20:05.243Z,983.15
2019-02-20T08:21:04.853Z,983.28
2019-02-20T08:22:05.346Z,983.12
2019-02-20T08:23:05.503Z,983.17
2019-02-20T08:24:04.806Z,983.20
2019-02-20T08:25:04.949Z,983.25
2019-02-20T08:26:04.551Z,983.17
2019-02-20T08:27:05.340Z,983.35
2019-02-20T08:28:05.458Z,983.27
2019-02-20T08:29:04.545Z,983.33
2019-02-20T08:30:04.759Z,983.35
2019-02-20T08:31:04.817Z,983.19
2019-02-20T08:32:05.115Z,983.24
2019-02-20T08:33:05.234Z,983.43
2019-02-20T08:34:04.856Z,983.40
2019-02-20T08:35:05.038Z,983.35
2019-02-20T08:36:09.598Z,983.39
2019-02-20T08:37:05.106Z,983.35
2019-02-20T08:38:05.296Z,983.42
2019-02-20T08:39:04.693Z,983.64
2019-02-20T08:40:05.307Z,983.34
2019-02-20T08:41:05.162Z,983.55
2019-02-20T08:42:04.707Z,983.50
2019-02-20T08:43:05.366Z,983.55
2019-02-20T08:44:04.493Z,983.35
2019-02-20T08:45:05.058Z,983.46
2019-02-20T08:46:04.722Z,983.57
2019-02-20T08:47:04.820Z,983.28
2019-02-20T08:48:04.870Z,983.57
2019-02-20T08:49:05.190Z,983.49
2019-02-20T08:50:05.369Z,983.48
2019-02-20T08:51:04.647Z,983.43
2019-02-20T08:52:04.695Z,983.62
2019-02-20T08:53:05.419Z,983.48
2019-02-20T08:54:05.437Z,983.42
2019-02-20T08:55:04.525Z,983.62
2019-02-20T08:56:09.880Z,983.64
2019-02-20T08:57:05.362Z,983.48
2019-02-20T08:58:04.734Z,983.50
2019-02-20T08:59:05.156Z,983.73
2019-02-20T09:00:04.564Z,983.70
2019-02-20T09:01:05.241Z,983.58
2019-02-20T09:02:04.738Z,983.58
2019-02-20T09:03:04.923Z,983.67
2019-02-20T09:04:04.972Z,983.55
2019-02-20T09:05:05.387Z,983.58
2019-02-20T09:06:04.912Z,983.72
2019-02-20T09:07:05.027Z,983.66
2019-02-20T09:08:05.343Z,983.63
2019-02-20T09:09:05.561Z,983.75
2019-02-20T09:10:04.576Z,983.60
2019-02-20T09:11:04.966Z,983.69
2019-02-20T09:12:05.523Z,983.74
2019-02-20T09:13:04.558Z,983.71
2019-02-20T09:14:04.809Z,983.66
2019-02-20T09:15:05.116Z,983.63
2019-02-20T09:16:05.480Z,983.77
2019-02-20T09:17:04.929Z,983.76
2019-02-20T09:18:05.055Z,983.76
2019-02-20T09:19:05.195Z,983.76
2019-02-20T09:20:04.886Z,983.73
2019-02-20T09:21:05.041Z,983.70
2019-02-20T09:22:05.301Z,983.73
2019-02-20T09:23:05.420Z,983.76
2019-02-20T09:24:04.703Z,983.78
2019-02-20T09:25:05.345Z,983.73
2019-02-20T09:26:04.876Z,983.75
2019-02-20T09:27:05.032Z,983.64
2019-02-20T09:28:04.643Z,983.83
2019-02-20T09:29:10.111Z,983.80
2019-02-20T09:30:04.839Z,983.69
2019-02-20T09:31:05.361Z,983.69
2019-02-20T09:32:04.668Z,983.69
2019-02-20T09:33:04.822Z,983.83
2019-02-20T09:34:04.825Z,983.80
2019-02-20T09:35:05.837Z,983.68
2019-02-20T09:36:05.571Z,983.80
2019-02-20T09:37:04.725Z,983.88
2019-02-20T09:38:05.088Z,983.82
2019-02-20T09:39:05.292Z,983.90
2019-02-20T09:40:04.493Z,983.82
2019-02-20T09:41:05.027Z,983.79
2019-02-20T09:42:05.354Z,983.79
2019-02-20T09:43:04.680Z,983.92
2019-02-20T09:44:05.239Z,983.78
2019-02-20T09:45:05.186Z,983.84
2019-02-20T09:46:05.608Z,983.86
2019-02-20T09:47:04.754Z,983.92
2019-02-20T09:48:04.984Z,983.81
2019-02-20T09:49:10.478Z,983.83
2019-02-20T09:50:04.795Z,983.83
2019-02-20T09:51:05.129Z,983.83
2019-02-20T09:52:04.603Z,983.80
2019-02-20T09:53:04.876Z,983.66
2019-02-20T09:54:05.375Z,983.91
2019-02-20T09:55:04.574Z,983.88
2019-02-20T09:56:04.765Z,983.91
2019-02-20T09:57:05.208Z,983.99
2019-02-20T09:58:04.679Z,983.79
2019-02-20T09:59:04.744Z,983.90
2019-02-20T10:00:04.873Z,983.87
2019-02-20T10:01:05.056Z,983.82
2019-02-20T10:02:05.206Z,983.90
2019-02-20T10:03:04.700Z,983.81
2019-02-20T10:04:04.824Z,983.81
2019-02-20T10:05:05.182Z,983.95
2019-02-20T10:06:04.984Z,983.84
2019-02-20T10:07:05.088Z,983.89
2019-02-20T10:08:05.435Z,983.86
2019-02-20T10:09:04.649Z,984.06
2019-02-20T10:10:05.412Z,983.97
2019-02-20T10:11:04.767Z,983.89
2019-02-20T10:12:04.570Z,983.97
2019-02-20T10:13:04.677Z,983.91
2019-02-20T10:14:04.913Z,983.97
2019-02-20T10:15:05.223Z,983.77
2019-02-20T10:16:04.625Z,983.91
2019-02-20T10:17:04.912Z,983.82
2019-02-20T10:18:04.569Z,983.96
2019-02-20T10:19:04.700Z,983.88
2019-02-20T10:20:04.935Z,983.88
2019-02-20T10:21:04.603Z,983.93
2019-02-20T10:22:05.311Z,983.85
2019-02-20T10:23:04.874Z,983.90
2019-02-20T10:24:05.315Z,983.93
2019-02-20T10:25:05.353Z,983.90
2019-02-20T10:26:05.075Z,984.04
2019-02-20T10:27:05.262Z,983.90
2019-02-20T10:28:05.459Z,984.01
2019-02-20T10:29:09.904Z,983.90
2019-02-20T10:30:05.372Z,984.01
2019-02-20T10:31:05.416Z,983.98
2019-02-20T10:32:04.678Z,983.92
2019-02-20T10:33:04.899Z,984.04
2019-02-20T10:34:05.154Z,984.04
2019-02-20T10:35:05.123Z,984.01
2019-02-20T10:36:04.752Z,983.95
2019-02-20T10:37:04.851Z,984.12
2019-02-20T10:38:05.032Z,984.06
2019-02-20T10:39:05.516Z,984.06
2019-02-20T10:40:04.925Z,984.14
2019-02-20T10:41:05.226Z,984.11
2019-02-20T10:42:04.978Z,984.06
2019-02-20T10:43:05.001Z,984.11
2019-02-20T10:44:05.147Z,984.06
2019-02-20T10:45:05.306Z,984.11
2019-02-20T10:46:04.828Z,984.17
2019-02-20T10:47:04.919Z,984.20
2019-02-20T10:48:04.623Z,983.94
2019-02-20T10:49:04.754Z,984.05
2019-02-20T10:50:05.080Z,984.05
2019-02-20T10:51:05.065Z,983.94
2019-02-20T10:52:04.786Z,983.94
2019-02-20T10:53:10.350Z,984.11
2019-02-20T10:54:04.754Z,983.97
2019-02-20T10:55:05.489Z,984.02
2019-02-20T10:56:09.875Z,983.82
2019-02-20T10:57:04.620Z,983.79
2019-02-20T10:58:04.976Z,983.93
2019-02-20T10:59:05.293Z,983.88
2019-02-20T11:00:05.347Z,983.96
2019-02-20T11:01:04.610Z,983.96
2019-02-20T11:02:04.798Z,983.91
2019-02-20T11:03:05.350Z,983.93
2019-02-20T11:04:05.394Z,983.88
2019-02-20T11:05:05.530Z,983.96
2019-02-20T11:06:04.589Z,983.76
2019-02-20T11:07:04.800Z,983.90
2019-02-20T11:08:05.246Z,983.84
2019-02-20T11:09:04.926Z,983.76
2019-02-20T11:10:05.385Z,983.90
2019-02-20T11:11:04.782Z,983.87
2019-02-20T11:12:04.879Z,983.73
2019-02-20T11:13:05.029Z,983.84
2019-02-20T11:14:05.075Z,983.81
2019-02-20T11:15:04.620Z,983.78
2019-02-20T11:16:04.863Z,983.92
2019-02-20T11:17:04.824Z,983.81
2019-02-20T11:18:04.796Z,983.95
2019-02-20T11:19:05.399Z,983.89
2019-02-20T11:20:04.827Z,983.92
2019-02-20T11:21:05.391Z,983.89
2019-02-20T11:22:05.558Z,983.89
2019-02-20T11:23:04.712Z,983.83
2019-02-20T11:24:05.226Z,983.86
2019-02-20T11:25:04.585Z,983.77
2019-02-20T11:26:05.246Z,983.86
2019-02-20T11:27:05.125Z,983.94
2019-02-20T11:28:05.344Z,983.77
2019-02-20T11:29:10.183Z,983.88
2019-02-20T11:30:04.600Z,983.86
2019-02-20T11:31:05.431Z,983.91
2019-02-20T11:32:04.697Z,983.77
2019-02-20T11:33:05.218Z,983.74
2019-02-20T11:34:05.250Z,983.74
2019-02-20T11:35:05.477Z,983.82
2019-02-20T11:36:04.901Z,983.65
2019-02-20T11:37:04.872Z,983.85
2019-02-20T11:38:05.369Z,983.90
2019-02-20T11:39:05.504Z,983.79
2019-02-20T11:40:04.598Z,983.81
2019-02-20T11:41:05.181Z,983.78
2019-02-20T11:42:04.636Z,983.78
2019-02-20T11:43:06.588Z,983.70
2019-02-20T11:44:05.362Z,983.84
2019-02-20T11:45:04.569Z,983.67
2019-02-20T11:46:04.797Z,983.67
2019-02-20T11:47:05.438Z,983.78
2019-02-20T11:48:04.782Z,983.70
2019-02-20T11:49:05.076Z,983.56
2019-02-20T11:50:05.356Z,983.73
2019-02-20T11:51:05.311Z,983.70
2019-02-20T11:52:04.980Z,983.76
2019-02-20T11:53:04.664Z,983.73
2019-02-20T11:54:04.915Z,983.74
2019-02-20T11:55:05.925Z,983.62
2019-02-20T11:56:04.650Z,983.59
2019-02-20T11:57:04.856Z,983.60
2019-02-20T11:58:04.936Z,983.85
2019-02-20T11:59:04.547Z,983.54
2019-02-20T12:00:04.946Z,983.68
2019-02-20T12:01:05.020Z,983.71
2019-02-20T12:02:05.274Z,983.60
2019-02-20T12:03:04.841Z,983.74
2019-02-20T12:04:04.920Z,983.65
2019-02-20T12:05:05.116Z,983.68
2019-02-20T12:06:05.182Z,983.65
2019-02-20T12:07:05.400Z,983.65
2019-02-20T12:08:05.506Z,983.65
2019-02-20T12:09:05.109Z,983.71
2019-02-20T12:10:05.093Z,983.74
2019-02-20T12:11:05.298Z,983.62
2019-02-20T12:12:04.820Z,983.82
2019-02-20T12:13:04.991Z,983.68
2019-02-20T12:14:04.555Z,983.71
2019-02-20T12:15:04.713Z,983.74
2019-02-20T12:16:05.132Z,983.76
2019-02-20T12:17:05.199Z,983.76
2019-02-20T12:18:04.555Z,983.82
2019-02-20T12:19:04.757Z,983.59
2019-02-20T12:20:05.312Z,983.76
2019-02-20T12:21:04.729Z,983.71
2019-02-20T12:22:04.985Z,983.68
2019-02-20T12:23:04.860Z,983.71
2019-02-20T12:24:05.478Z,983.76
2019-02-20T12:25:04.706Z,983.76
2019-02-20T12:26:04.946Z,983.85
2019-02-20T12:27:05.036Z,983.76
2019-02-20T12:28:05.105Z,983.68